Airfield :
LOGIN :

Register | Disclaimer

   EN    FR    IT 

 










Legend :    VFR   Marginal VFR   IFR   Intensive IFR   Very Intensive IFR
Visi :
Ceiling :
>= 8 km
>= 3000ft
5 to 8 km
1000 to 3000 ft
1500m to 5 km
500 to 1000 ft
800 to 1500m
200 to 500 ft
< 800m
< 200 ft
Symbols :   Thunderstorms  Fog  Heavy snow  Heavy precipitations  Wind > 20 kt
SIGMETs :     Misc.  Thunderstorms  Icing  Turbulence  Mountain Waves  Volcanic Ashes







- Airport Elevation : 76 ft
- IATA code : KID


ESMK - Kristianstad

CURRENT METAR :
  • 210120Z AUTO 09013KT 9999 -RA FEW013/// BKN016/// BKN020/// 04/03 Q1027

EXPIRED METARs :
  • 210050Z AUTO 10014KT 9999 -RA BKN014/// 04/03 Q1027
  • 210020Z AUTO 10014KT 9999 -RA FEW016/// BKN018/// 04/02 Q////
  • 202350Z AUTO 10016KT 9999 -RA FEW017/// BKN019/// 05/02 Q////
  • 202320Z AUTO 09014KT 9999 -RA SCT019/// BKN025/// 05/02 Q1026
  • 202250Z AUTO 09014KT 9999 FEW021/// SCT024/// BKN028/// 05/02 Q1026

Expired Forecast.
No reported NOTAMs for that airfield.



MET'MAP, your aeronautical weather chart ! - Copyright ORBIFLY December 2007 - Disclaimer

ORBIFLY MET'MAP TEAM :

Programming & Development : Alexandra Zaïnal
Concept & Development : Baudouin d'Aumeries
Co-Development & Prog : Marc-Olivier Méhu
Technical & hardware support : Manuel Goepfert

Contact : metmap@orbifly.com




SOURCES & CREDITS :

   NOAA